sensor_id;sensor_type;location;lat;lon;timestamp;pressure;altitude;pressure_sealevel;temperature;humidity
7200;BME280;3641;49.082;8.200;2023-04-30T00:02:20;100736.19;;;11.59;81.34
7200;BME280;3641;49.082;8.200;2023-04-30T00:04:48;100728.06;;;11.74;80.48
7200;BME280;3641;49.082;8.200;2023-04-30T00:07:14;100726.91;;;11.69;80.05
7200;BME280;3641;49.082;8.200;2023-04-30T00:09:40;100728.44;;;11.71;80.78
7200;BME280;3641;49.082;8.200;2023-04-30T00:12:07;100729.41;;;11.55;81.08
7200;BME280;3641;49.082;8.200;2023-04-30T00:14:33;100734.28;;;11.68;80.31
7200;BME280;3641;49.082;8.200;2023-04-30T00:17:00;100742.03;;;11.56;81.40
7200;BME280;3641;49.082;8.200;2023-04-30T00:19:27;100732.19;;;11.47;82.16
7200;BME280;3641;49.082;8.200;2023-04-30T00:21:55;100739.38;;;11.71;80.68
7200;BME280;3641;49.082;8.200;2023-04-30T00:24:21;100735.25;;;11.52;81.78
7200;BME280;3641;49.082;8.200;2023-04-30T00:26:48;100735.28;;;11.67;80.72
7200;BME280;3641;49.082;8.200;2023-04-30T00:29:14;100731.88;;;11.42;81.74
7200;BME280;3641;49.082;8.200;2023-04-30T00:31:41;100729.66;;;11.69;80.48
7200;BME280;3641;49.082;8.200;2023-04-30T00:34:07;100732.94;;;11.64;80.18
7200;BME280;3641;49.082;8.200;2023-04-30T00:36:33;100741.13;;;11.41;81.56
7200;BME280;3641;49.082;8.200;2023-04-30T00:39:01;100730.56;;;11.38;82.27
7200;BME280;3641;49.082;8.200;2023-04-30T00:41:29;100725.59;;;11.41;82.45
7200;BME280;3641;49.082;8.200;2023-04-30T00:43:55;100727.22;;;11.51;81.88
7200;BME280;3641;49.082;8.200;2023-04-30T00:46:22;100727.41;;;11.49;81.30
7200;BME280;3641;49.082;8.200;2023-04-30T00:48:48;100732.50;;;11.52;81.59
7200;BME280;3641;49.082;8.200;2023-04-30T00:51:15;100728.84;;;11.37;82.69
7200;BME280;3641;49.082;8.200;2023-04-30T00:53:42;100723.69;;;11.42;81.67
7200;BME280;3641;49.082;8.200;2023-04-30T00:56:12;100720.84;;;11.35;82.21
7200;BME280;3641;49.082;8.200;2023-04-30T00:58:40;100721.63;;;11.21;83.00
7200;BME280;3641;49.082;8.200;2023-04-30T01:01:07;100724.53;;;11.19;83.30
7200;BME280;3641;49.082;8.200;2023-04-30T01:03:34;100720.44;;;11.15;83.18
7200;BME280;3641;49.082;8.200;2023-04-30T01:06:00;100724.16;;;11.22;83.58
7200;BME280;3641;49.082;8.200;2023-04-30T01:08:27;100725.38;;;11.20;83.55
7200;BME280;3641;49.082;8.200;2023-04-30T01:11:09;100722.63;;;11.20;83.81
7200;BME280;3641;49.082;8.200;2023-04-30T01:13:43;100715.19;;;11.37;81.89
7200;BME280;3641;49.082;8.200;2023-04-30T01:16:18;100718.09;;;11.35;82.76
7200;BME280;3641;49.082;8.200;2023-04-30T01:18:48;100724.69;;;11.18;84.16
7200;BME280;3641;49.082;8.200;2023-04-30T01:21:17;100717.22;;;11.12;84.50
7200;BME280;3641;49.082;8.200;2023-04-30T01:23:54;100717.81;;;11.30;83.46
7200;BME280;3641;49.082;8.200;2023-04-30T01:26:39;100721.63;;;11.21;83.35
7200;BME280;3641;49.082;8.200;2023-04-30T01:29:13;100721.00;;;11.11;83.54
7200;BME280;3641;49.082;8.200;2023-04-30T01:31:42;100713.47;;;11.13;83.13
7200;BME280;3641;49.082;8.200;2023-04-30T01:34:09;100713.34;;;11.29;83.45
7200;BME280;3641;49.082;8.200;2023-04-30T01:36:44;100705.09;;;11.14;83.50
7200;BME280;3641;49.082;8.200;2023-04-30T01:39:38;100709.31;;;11.17;83.90
7200;BME280;3641;49.082;8.200;2023-04-30T01:42:13;100713.78;;;11.18;83.75
7200;BME280;3641;49.082;8.200;2023-04-30T01:44:54;100710.97;;;11.26;82.92
7200;BME280;3641;49.082;8.200;2023-04-30T01:47:30;100702.19;;;11.16;83.68
7200;BME280;3641;49.082;8.200;2023-04-30T01:50:07;100712.22;;;11.23;83.10
7200;BME280;3641;49.082;8.200;2023-04-30T01:52:39;100710.06;;;11.11;84.62
7200;BME280;3641;49.082;8.200;2023-04-30T01:55:10;100709.66;;;10.90;85.03
7200;BME280;3641;49.082;8.200;2023-04-30T01:57:41;100706.28;;;11.12;84.21
7200;BME280;3641;49.082;8.200;2023-04-30T02:00:11;100709.78;;;10.97;84.47
7200;BME280;3641;49.082;8.200;2023-04-30T02:02:39;100709.00;;;10.88;85.41
7200;BME280;3641;49.082;8.200;2023-04-30T02:05:06;100708.25;;;11.03;84.29
7200;BME280;3641;49.082;8.200;2023-04-30T02:07:38;100710.09;;;11.02;84.23
7200;BME280;3641;49.082;8.200;2023-04-30T02:10:06;100715.59;;;10.94;85.08
7200;BME280;3641;49.082;8.200;2023-04-30T02:12:33;100708.31;;;10.86;84.72
7200;BME280;3641;49.082;8.200;2023-04-30T02:15:00;100698.50;;;11.00;84.04
7200;BME280;3641;49.082;8.200;2023-04-30T02:17:27;100707.47;;;10.86;84.29
7200;BME280;3641;49.082;8.200;2023-04-30T02:19:54;100707.25;;;10.96;84.40
7200;BME280;3641;49.082;8.200;2023-04-30T02:22:20;100706.25;;;10.88;84.73
7200;BME280;3641;49.082;8.200;2023-04-30T02:24:47;100712.34;;;10.99;84.04
7200;BME280;3641;49.082;8.200;2023-04-30T02:27:14;100714.69;;;10.79;85.61
7200;BME280;3641;49.082;8.200;2023-04-30T02:29:40;100710.50;;;10.91;84.62
7200;BME280;3641;49.082;8.200;2023-04-30T02:32:07;100716.25;;;11.04;84.12
7200;BME280;3641;49.082;8.200;2023-04-30T02:34:35;100719.47;;;11.08;83.48
7200;BME280;3641;49.082;8.200;2023-04-30T02:37:01;100716.88;;;11.15;83.03
7200;BME280;3641;49.082;8.200;2023-04-30T02:39:28;100720.44;;;11.15;82.67
7200;BME280;3641;49.082;8.200;2023-04-30T02:41:54;100711.75;;;11.12;83.28
7200;BME280;3641;49.082;8.200;2023-04-30T02:44:20;100714.94;;;11.23;82.18
7200;BME280;3641;49.082;8.200;2023-04-30T02:46:47;100712.75;;;10.87;83.73
7200;BME280;3641;49.082;8.200;2023-04-30T02:49:13;100721.19;;;11.09;82.77
7200;BME280;3641;49.082;8.200;2023-04-30T02:51:41;100723.84;;;10.86;83.94
7200;BME280;3641;49.082;8.200;2023-04-30T02:54:08;100715.31;;;10.89;84.34
7200;BME280;3641;49.082;8.200;2023-04-30T02:56:34;100714.47;;;10.88;84.10
7200;BME280;3641;49.082;8.200;2023-04-30T02:59:00;100716.66;;;10.85;84.96
7200;BME280;3641;49.082;8.200;2023-04-30T03:01:27;100711.06;;;10.78;84.55
7200;BME280;3641;49.082;8.200;2023-04-30T03:03:53;100725.78;;;10.69;85.39
7200;BME280;3641;49.082;8.200;2023-04-30T03:06:20;100717.91;;;10.82;84.42
7200;BME280;3641;49.082;8.200;2023-04-30T03:08:48;100709.75;;;11.05;82.69
7200;BME280;3641;49.082;8.200;2023-04-30T03:11:14;100707.75;;;10.99;83.37
7200;BME280;3641;49.082;8.200;2023-04-30T03:13:42;100705.75;;;10.85;83.99
7200;BME280;3641;49.082;8.200;2023-04-30T03:16:08;100708.59;;;11.00;83.79
7200;BME280;3641;49.082;8.200;2023-04-30T03:18:35;100714.38;;;11.05;82.96
7200;BME280;3641;49.082;8.200;2023-04-30T03:21:01;100703.06;;;10.77;83.98
7200;BME280;3641;49.082;8.200;2023-04-30T03:23:28;100699.28;;;10.86;83.99
7200;BME280;3641;49.082;8.200;2023-04-30T03:25:56;100698.38;;;10.94;83.66
7200;BME280;3641;49.082;8.200;2023-04-30T03:28:22;100705.00;;;10.68;84.91
7200;BME280;3641;49.082;8.200;2023-04-30T03:30:49;100694.34;;;10.81;83.83
7200;BME280;3641;49.082;8.200;2023-04-30T03:33:15;100701.41;;;10.67;84.57
7200;BME280;3641;49.082;8.200;2023-04-30T03:35:42;100690.63;;;10.74;83.85
7200;BME280;3641;49.082;8.200;2023-04-30T03:38:08;100690.13;;;10.70;84.50
7200;BME280;3641;49.082;8.200;2023-04-30T03:40:35;100694.91;;;10.68;84.84
7200;BME280;3641;49.082;8.200;2023-04-30T03:43:02;100697.38;;;10.55;86.11
7200;BME280;3641;49.082;8.200;2023-04-30T03:45:29;100700.88;;;10.72;84.36
7200;BME280;3641;49.082;8.200;2023-04-30T03:47:56;100682.56;;;10.81;83.75
7200;BME280;3641;49.082;8.200;2023-04-30T03:50:22;100688.13;;;10.64;84.43
7200;BME280;3641;49.082;8.200;2023-04-30T03:52:49;100685.88;;;10.68;84.74
7200;BME280;3641;49.082;8.200;2023-04-30T03:55:15;100689.88;;;10.88;83.41
7200;BME280;3641;49.082;8.200;2023-04-30T03:57:42;100680.19;;;10.78;84.93
7200;BME280;3641;49.082;8.200;2023-04-30T04:00:11;100686.59;;;10.62;84.90
7200;BME280;3641;49.082;8.200;2023-04-30T04:02:38;100684.88;;;10.61;85.59
7200;BME280;3641;49.082;8.200;2023-04-30T04:05:06;100690.28;;;10.77;84.59
7200;BME280;3641;49.082;8.200;2023-04-30T04:07:32;100686.06;;;10.66;85.59
7200;BME280;3641;49.082;8.200;2023-04-30T04:09:59;100694.78;;;10.62;85.04
7200;BME280;3641;49.082;8.200;2023-04-30T04:12:25;100690.50;;;10.59;85.42
7200;BME280;3641;49.082;8.200;2023-04-30T04:14:52;100690.72;;;10.49;85.89
7200;BME280;3641;49.082;8.200;2023-04-30T04:17:19;100693.06;;;10.61;85.82
7200;BME280;3641;49.082;8.200;2023-04-30T04:19:46;100698.03;;;10.57;85.88
7200;BME280;3641;49.082;8.200;2023-04-30T04:22:12;100700.94;;;10.56;85.67
7200;BME280;3641;49.082;8.200;2023-04-30T04:24:39;100702.31;;;10.60;85.71
7200;BME280;3641;49.082;8.200;2023-04-30T04:27:05;100706.44;;;10.47;86.84
7200;BME280;3641;49.082;8.200;2023-04-30T04:29:32;100707.13;;;10.41;86.75
7200;BME280;3641;49.082;8.200;2023-04-30T04:31:58;100702.63;;;10.65;85.65
7200;BME280;3641;49.082;8.200;2023-04-30T04:34:28;100702.69;;;10.40;87.17
7200;BME280;3641;49.082;8.200;2023-04-30T04:36:54;100707.81;;;10.43;86.96
7200;BME280;3641;49.082;8.200;2023-04-30T04:39:22;100707.97;;;10.50;87.05
7200;BME280;3641;49.082;8.200;2023-04-30T04:41:48;100705.06;;;10.51;86.70
7200;BME280;3641;49.082;8.200;2023-04-30T04:44:15;100706.41;;;10.56;86.00
7200;BME280;3641;49.082;8.200;2023-04-30T04:46:42;100707.13;;;10.41;87.54
7200;BME280;3641;49.082;8.200;2023-04-30T04:49:09;100712.75;;;10.40;87.51
7200;BME280;3641;49.082;8.200;2023-04-30T04:51:38;100718.22;;;10.40;87.59
7200;BME280;3641;49.082;8.200;2023-04-30T04:54:04;100721.44;;;10.51;87.26
7200;BME280;3641;49.082;8.200;2023-04-30T04:56:31;100711.91;;;10.47;87.57
7200;BME280;3641;49.082;8.200;2023-04-30T04:58:58;100722.59;;;10.57;85.94
7200;BME280;3641;49.082;8.200;2023-04-30T05:01:25;100727.28;;;10.80;84.55
7200;BME280;3641;49.082;8.200;2023-04-30T05:03:51;100721.25;;;10.61;87.35
7200;BME280;3641;49.082;8.200;2023-04-30T05:06:18;100720.41;;;10.52;87.56
7200;BME280;3641;49.082;8.200;2023-04-30T05:08:46;100724.94;;;10.68;86.60
7200;BME280;3641;49.082;8.200;2023-04-30T05:11:12;100721.41;;;10.60;87.08
7200;BME280;3641;49.082;8.200;2023-04-30T05:13:39;100712.31;;;10.76;85.34
7200;BME280;3641;49.082;8.200;2023-04-30T05:16:05;100715.25;;;10.66;86.14
7200;BME280;3641;49.082;8.200;2023-04-30T05:18:32;100722.97;;;10.46;87.56
7200;BME280;3641;49.082;8.200;2023-04-30T05:20:58;100717.88;;;10.43;87.51
7200;BME280;3641;49.082;8.200;2023-04-30T05:23:25;100717.41;;;10.70;86.13
7200;BME280;3641;49.082;8.200;2023-04-30T05:25:53;100720.16;;;10.70;86.25
7200;BME280;3641;49.082;8.200;2023-04-30T05:28:21;100723.63;;;10.64;86.73
7200;BME280;3641;49.082;8.200;2023-04-30T05:30:47;100727.00;;;10.66;86.42
7200;BME280;3641;49.082;8.200;2023-04-30T05:33:14;100721.06;;;10.63;86.70
7200;BME280;3641;49.082;8.200;2023-04-30T05:35:41;100723.97;;;10.61;86.77
7200;BME280;3641;49.082;8.200;2023-04-30T05:38:07;100719.97;;;10.80;86.47
7200;BME280;3641;49.082;8.200;2023-04-30T05:40:33;100727.69;;;10.68;86.47
7200;BME280;3641;49.082;8.200;2023-04-30T05:43:01;100729.31;;;10.86;84.75
7200;BME280;3641;49.082;8.200;2023-04-30T05:45:28;100731.41;;;10.76;86.05
7200;BME280;3641;49.082;8.200;2023-04-30T05:47:54;100727.59;;;10.85;85.42
7200;BME280;3641;49.082;8.200;2023-04-30T05:50:21;100731.09;;;11.02;84.17
7200;BME280;3641;49.082;8.200;2023-04-30T05:52:47;100726.47;;;11.11;83.16
7200;BME280;3641;49.082;8.200;2023-04-30T05:55:14;100724.50;;;10.96;85.10
7200;BME280;3641;49.082;8.200;2023-04-30T05:57:40;100727.53;;;11.01;85.00
7200;BME280;3641;49.082;8.200;2023-04-30T06:00:10;100728.72;;;10.99;84.90
7200;BME280;3641;49.082;8.200;2023-04-30T06:02:36;100729.28;;;11.25;82.96
7200;BME280;3641;49.082;8.200;2023-04-30T06:05:04;100729.09;;;11.27;83.88
7200;BME280;3641;49.082;8.200;2023-04-30T06:07:31;100721.66;;;11.44;82.31
7200;BME280;3641;49.082;8.200;2023-04-30T06:09:57;100730.38;;;11.39;82.75
7200;BME280;3641;49.082;8.200;2023-04-30T06:12:24;100734.06;;;11.47;83.16
7200;BME280;3641;49.082;8.200;2023-04-30T06:14:51;100726.13;;;11.60;82.09
7200;BME280;3641;49.082;8.200;2023-04-30T06:17:19;100734.13;;;11.38;81.97
7200;BME280;3641;49.082;8.200;2023-04-30T06:19:45;100736.69;;;11.63;81.37
7200;BME280;3641;49.082;8.200;2023-04-30T06:22:12;100733.28;;;11.61;82.03
7200;BME280;3641;49.082;8.200;2023-04-30T06:24:38;100727.91;;;11.76;81.16
7200;BME280;3641;49.082;8.200;2023-04-30T06:27:05;100720.59;;;11.68;81.68
7200;BME280;3641;49.082;8.200;2023-04-30T06:29:31;100720.06;;;11.73;81.01
7200;BME280;3641;49.082;8.200;2023-04-30T06:31:57;100735.19;;;11.60;80.58
7200;BME280;3641;49.082;8.200;2023-04-30T06:34:25;100722.97;;;11.71;79.64
7200;BME280;3641;49.082;8.200;2023-04-30T06:36:52;100728.19;;;11.81;80.34
7200;BME280;3641;49.082;8.200;2023-04-30T06:39:18;100723.44;;;11.75;79.26
7200;BME280;3641;49.082;8.200;2023-04-30T06:41:45;100722.34;;;11.84;78.97
7200;BME280;3641;49.082;8.200;2023-04-30T06:44:12;100718.56;;;11.85;78.80
7200;BME280;3641;49.082;8.200;2023-04-30T06:46:39;100716.75;;;12.01;79.57
7200;BME280;3641;49.082;8.200;2023-04-30T06:49:05;100724.66;;;11.95;77.55
7200;BME280;3641;49.082;8.200;2023-04-30T06:51:33;100724.03;;;12.08;78.66
7200;BME280;3641;49.082;8.200;2023-04-30T06:54:00;100715.25;;;12.13;77.49
7200;BME280;3641;49.082;8.200;2023-04-30T06:56:26;100723.38;;;12.21;76.76
7200;BME280;3641;49.082;8.200;2023-04-30T06:58:53;100729.53;;;12.23;76.19
7200;BME280;3641;49.082;8.200;2023-04-30T07:01:19;100736.09;;;12.14;74.01
7200;BME280;3641;49.082;8.200;2023-04-30T07:03:45;100724.03;;;12.08;74.58
7200;BME280;3641;49.082;8.200;2023-04-30T07:06:12;100730.16;;;12.10;74.55
7200;BME280;3641;49.082;8.200;2023-04-30T07:08:40;100732.81;;;12.18;75.40
7200;BME280;3641;49.082;8.200;2023-04-30T07:11:08;100726.69;;;12.16;74.78
7200;BME280;3641;49.082;8.200;2023-04-30T07:13:34;100727.63;;;12.24;74.38
7200;BME280;3641;49.082;8.200;2023-04-30T07:16:01;100730.00;;;12.27;74.56
7200;BME280;3641;49.082;8.200;2023-04-30T07:18:27;100723.66;;;12.41;76.04
7200;BME280;3641;49.082;8.200;2023-04-30T07:20:54;100721.53;;;12.51;75.45
7200;BME280;3641;49.082;8.200;2023-04-30T07:23:20;100723.50;;;12.58;75.26
7200;BME280;3641;49.082;8.200;2023-04-30T07:25:48;100725.88;;;12.61;73.48
7200;BME280;3641;49.082;8.200;2023-04-30T07:28:15;100720.66;;;12.66;73.67
7200;BME280;3641;49.082;8.200;2023-04-30T07:30:41;100725.13;;;12.67;72.22
7200;BME280;3641;49.082;8.200;2023-04-30T07:33:08;100719.91;;;12.72;72.66
7200;BME280;3641;49.082;8.200;2023-04-30T07:35:34;100719.34;;;12.77;73.17
7200;BME280;3641;49.082;8.200;2023-04-30T07:38:00;100716.03;;;12.81;72.81
7200;BME280;3641;49.082;8.200;2023-04-30T07:40:27;100711.72;;;12.94;72.30
7200;BME280;3641;49.082;8.200;2023-04-30T07:42:55;100708.69;;;13.03;72.21
7200;BME280;3641;49.082;8.200;2023-04-30T07:45:21;100706.44;;;13.07;73.11
7200;BME280;3641;49.082;8.200;2023-04-30T07:47:48;100707.34;;;13.14;72.07
7200;BME280;3641;49.082;8.200;2023-04-30T07:50:14;100717.28;;;13.15;71.21
7200;BME280;3641;49.082;8.200;2023-04-30T07:52:41;100710.53;;;13.18;70.04
7200;BME280;3641;49.082;8.200;2023-04-30T07:55:08;100702.88;;;13.28;68.99
7200;BME280;3641;49.082;8.200;2023-04-30T07:57:34;100705.06;;;13.33;68.50
7200;BME280;3641;49.082;8.200;2023-04-30T08:00:03;100694.53;;;13.36;67.44
7200;BME280;3641;49.082;8.200;2023-04-30T08:02:29;100693.97;;;13.41;67.43
7200;BME280;3641;49.082;8.200;2023-04-30T08:04:56;100693.88;;;13.56;68.25
7200;BME280;3641;49.082;8.200;2023-04-30T08:07:22;100700.25;;;13.56;68.30
7200;BME280;3641;49.082;8.200;2023-04-30T08:09:49;100698.13;;;13.58;68.84
7200;BME280;3641;49.082;8.200;2023-04-30T08:12:16;100702.44;;;13.68;68.18
7200;BME280;3641;49.082;8.200;2023-04-30T08:14:43;100704.00;;;13.77;67.82
7200;BME280;3641;49.082;8.200;2023-04-30T08:17:10;100712.09;;;13.85;65.91
7200;BME280;3641;49.082;8.200;2023-04-30T08:19:37;100713.19;;;13.91;66.07
7200;BME280;3641;49.082;8.200;2023-04-30T08:22:03;100717.44;;;13.93;65.25
7200;BME280;3641;49.082;8.200;2023-04-30T08:24:30;100718.13;;;14.02;64.31
7200;BME280;3641;49.082;8.200;2023-04-30T08:26:56;100715.97;;;13.97;66.01
7200;BME280;3641;49.082;8.200;2023-04-30T08:29:24;100713.75;;;14.08;63.94
7200;BME280;3641;49.082;8.200;2023-04-30T08:31:51;100724.59;;;14.16;62.71
7200;BME280;3641;49.082;8.200;2023-04-30T08:34:19;100709.34;;;14.13;64.71
7200;BME280;3641;49.082;8.200;2023-04-30T08:36:45;100708.75;;;14.18;65.11
7200;BME280;3641;49.082;8.200;2023-04-30T08:39:12;100715.09;;;14.19;65.20
7200;BME280;3641;49.082;8.200;2023-04-30T08:41:39;100711.91;;;14.15;63.72
7200;BME280;3641;49.082;8.200;2023-04-30T08:44:09;100714.78;;;14.35;64.92
7200;BME280;3641;49.082;8.200;2023-04-30T08:46:37;100710.34;;;14.34;64.54
7200;BME280;3641;49.082;8.200;2023-04-30T08:49:04;100716.50;;;14.36;62.22
7200;BME280;3641;49.082;8.200;2023-04-30T08:51:33;100715.25;;;14.45;61.86
7200;BME280;3641;49.082;8.200;2023-04-30T08:53:59;100709.88;;;14.59;61.07
7200;BME280;3641;49.082;8.200;2023-04-30T08:56:26;100718.41;;;14.70;59.75
7200;BME280;3641;49.082;8.200;2023-04-30T08:58:53;100709.78;;;14.80;61.42
7200;BME280;3641;49.082;8.200;2023-04-30T09:01:20;100718.69;;;14.82;61.32
7200;BME280;3641;49.082;8.200;2023-04-30T09:03:47;100711.09;;;14.91;59.70
7200;BME280;3641;49.082;8.200;2023-04-30T09:06:15;100716.59;;;14.91;58.58
7200;BME280;3641;49.082;8.200;2023-04-30T09:08:44;100715.19;;;15.08;57.73
7200;BME280;3641;49.082;8.200;2023-04-30T09:11:19;100715.78;;;14.97;58.24
7200;BME280;3641;49.082;8.200;2023-04-30T09:13:48;100711.16;;;15.04;59.77
7200;BME280;3641;49.082;8.200;2023-04-30T09:16:15;100710.56;;;15.16;58.23
7200;BME280;3641;49.082;8.200;2023-04-30T09:18:41;100710.56;;;15.16;57.82
7200;BME280;3641;49.082;8.200;2023-04-30T09:21:08;100702.53;;;15.21;58.74
7200;BME280;3641;49.082;8.200;2023-04-30T09:23:35;100699.38;;;15.31;59.85
7200;BME280;3641;49.082;8.200;2023-04-30T09:26:03;100708.91;;;15.35;59.26
7200;BME280;3641;49.082;8.200;2023-04-30T09:28:29;100710.41;;;15.44;56.13
7200;BME280;3641;49.082;8.200;2023-04-30T09:30:56;100703.41;;;15.35;60.71
7200;BME280;3641;49.082;8.200;2023-04-30T09:33:23;100706.81;;;15.37;59.82
7200;BME280;3641;49.082;8.200;2023-04-30T09:35:49;100704.28;;;15.42;61.13
7200;BME280;3641;49.082;8.200;2023-04-30T09:38:27;100709.78;;;15.42;56.06
7200;BME280;3641;49.082;8.200;2023-04-30T09:40:53;100706.41;;;15.40;53.72
7200;BME280;3641;49.082;8.200;2023-04-30T09:43:21;100707.25;;;15.40;53.75
7200;BME280;3641;49.082;8.200;2023-04-30T09:45:48;100706.16;;;15.35;57.98
7200;BME280;3641;49.082;8.200;2023-04-30T09:48:16;100708.47;;;15.31;53.57
7200;BME280;3641;49.082;8.200;2023-04-30T09:50:43;100707.19;;;15.20;52.30
7200;BME280;3641;49.082;8.200;2023-04-30T09:53:12;100712.47;;;15.22;52.25
7200;BME280;3641;49.082;8.200;2023-04-30T09:55:43;100702.31;;;15.16;51.14
7200;BME280;3641;49.082;8.200;2023-04-30T09:58:10;100697.03;;;15.21;56.72
7200;BME280;3641;49.082;8.200;2023-04-30T10:00:39;100705.50;;;15.13;51.12
7200;BME280;3641;49.082;8.200;2023-04-30T10:03:08;100704.44;;;15.20;51.72
7200;BME280;3641;49.082;8.200;2023-04-30T10:05:36;100702.34;;;15.29;49.78
7200;BME280;3641;49.082;8.200;2023-04-30T10:08:06;100701.09;;;15.32;52.29
7200;BME280;3641;49.082;8.200;2023-04-30T10:10:36;100698.97;;;15.34;52.27
7200;BME280;3641;49.082;8.200;2023-04-30T10:13:04;100700.44;;;15.36;54.00
7200;BME280;3641;49.082;8.200;2023-04-30T10:15:38;100701.75;;;15.40;55.97
7200;BME280;3641;49.082;8.200;2023-04-30T10:18:11;100700.69;;;15.48;53.98
7200;BME280;3641;49.082;8.200;2023-04-30T10:20:40;100692.59;;;15.33;49.55
7200;BME280;3641;49.082;8.200;2023-04-30T10:23:07;100697.06;;;15.34;49.82
7200;BME280;3641;49.082;8.200;2023-04-30T10:25:34;100691.16;;;15.37;50.48
7200;BME280;3641;49.082;8.200;2023-04-30T10:28:01;100697.31;;;15.46;50.23
7200;BME280;3641;49.082;8.200;2023-04-30T10:30:28;100686.72;;;15.50;50.37
7200;BME280;3641;49.082;8.200;2023-04-30T10:33:05;100677.84;;;15.54;49.09
7200;BME280;3641;49.082;8.200;2023-04-30T10:35:44;100672.97;;;15.43;49.74
7200;BME280;3641;49.082;8.200;2023-04-30T10:38:15;100668.94;;;15.46;53.14
7200;BME280;3641;49.082;8.200;2023-04-30T10:40:44;100675.94;;;15.48;52.51
7200;BME280;3641;49.082;8.200;2023-04-30T10:43:12;100672.09;;;15.42;53.05
7200;BME280;3641;49.082;8.200;2023-04-30T10:45:42;100663.22;;;15.47;49.46
7200;BME280;3641;49.082;8.200;2023-04-30T10:48:10;100656.88;;;15.47;49.08
7200;BME280;3641;49.082;8.200;2023-04-30T10:50:40;100663.84;;;15.49;50.74
7200;BME280;3641;49.082;8.200;2023-04-30T10:53:12;100673.59;;;15.58;48.68
7200;BME280;3641;49.082;8.200;2023-04-30T10:55:45;100658.59;;;15.61;48.52
7200;BME280;3641;49.082;8.200;2023-04-30T10:58:23;100651.38;;;15.60;48.59
7200;BME280;3641;49.082;8.200;2023-04-30T11:00:51;100666.84;;;15.54;50.90
7200;BME280;3641;49.082;8.200;2023-04-30T11:03:27;100661.97;;;15.63;51.51
7200;BME280;3641;49.082;8.200;2023-04-30T11:05:54;100652.25;;;15.60;49.66
7200;BME280;3641;49.082;8.200;2023-04-30T11:08:31;100645.88;;;15.60;52.52
7200;BME280;3641;49.082;8.200;2023-04-30T11:10:59;100640.41;;;15.73;48.94
7200;BME280;3641;49.082;8.200;2023-04-30T11:13:26;100649.09;;;15.84;50.45
7200;BME280;3641;49.082;8.200;2023-04-30T11:15:53;100639.78;;;15.91;46.92
7200;BME280;3641;49.082;8.200;2023-04-30T11:18:19;100640.00;;;15.83;48.55
7200;BME280;3641;49.082;8.200;2023-04-30T11:20:50;100647.63;;;15.88;50.86
7200;BME280;3641;49.082;8.200;2023-04-30T11:23:21;100642.53;;;15.85;49.01
7200;BME280;3641;49.082;8.200;2023-04-30T11:25:48;100634.50;;;15.76;47.72
7200;BME280;3641;49.082;8.200;2023-04-30T11:28:17;100638.28;;;15.82;52.50
7200;BME280;3641;49.082;8.200;2023-04-30T11:30:51;100650.13;;;15.83;50.75
7200;BME280;3641;49.082;8.200;2023-04-30T11:33:18;100639.56;;;15.86;53.79
7200;BME280;3641;49.082;8.200;2023-04-30T11:35:44;100637.03;;;15.85;48.83
7200;BME280;3641;49.082;8.200;2023-04-30T11:38:12;100642.94;;;15.88;51.01
7200;BME280;3641;49.082;8.200;2023-04-30T11:40:40;100638.69;;;15.86;48.62
7200;BME280;3641;49.082;8.200;2023-04-30T11:43:07;100641.44;;;15.86;47.88
7200;BME280;3641;49.082;8.200;2023-04-30T11:46:00;100635.13;;;15.85;50.29
7200;BME280;3641;49.082;8.200;2023-04-30T11:48:30;100634.47;;;15.90;50.81
7200;BME280;3641;49.082;8.200;2023-04-30T11:50:57;100623.03;;;15.93;50.30
7200;BME280;3641;49.082;8.200;2023-04-30T11:53:27;100620.06;;;16.01;49.21
7200;BME280;3641;49.082;8.200;2023-04-30T11:55:54;100621.53;;;16.04;49.65
7200;BME280;3641;49.082;8.200;2023-04-30T11:58:20;100626.19;;;16.10;49.14
7200;BME280;3641;49.082;8.200;2023-04-30T12:00:48;100622.78;;;16.21;48.48
7200;BME280;3641;49.082;8.200;2023-04-30T12:03:16;100620.00;;;16.14;48.92
7200;BME280;3641;49.082;8.200;2023-04-30T12:05:45;100615.59;;;16.07;50.07
7200;BME280;3641;49.082;8.200;2023-04-30T12:08:11;100629.53;;;16.25;50.18
7200;BME280;3641;49.082;8.200;2023-04-30T12:10:39;100618.28;;;16.27;52.33
7200;BME280;3641;49.082;8.200;2023-04-30T12:13:06;100623.16;;;16.31;50.78
7200;BME280;3641;49.082;8.200;2023-04-30T12:15:32;100614.91;;;16.25;48.97
7200;BME280;3641;49.082;8.200;2023-04-30T12:17:59;100620.63;;;16.30;52.25
7200;BME280;3641;49.082;8.200;2023-04-30T12:20:36;100618.69;;;16.37;48.12
7200;BME280;3641;49.082;8.200;2023-04-30T12:23:04;100615.94;;;16.37;49.08
7200;BME280;3641;49.082;8.200;2023-04-30T12:25:31;100607.91;;;16.29;48.48
7200;BME280;3641;49.082;8.200;2023-04-30T12:28:06;100618.91;;;16.29;50.62
7200;BME280;3641;49.082;8.200;2023-04-30T12:30:33;100612.75;;;16.33;49.51
7200;BME280;3641;49.082;8.200;2023-04-30T12:32:59;100607.66;;;16.44;48.91
7200;BME280;3641;49.082;8.200;2023-04-30T12:35:29;100602.97;;;16.44;47.97
7200;BME280;3641;49.082;8.200;2023-04-30T12:38:01;100605.47;;;16.52;50.37
7200;BME280;3641;49.082;8.200;2023-04-30T12:40:27;100605.47;;;16.52;50.63
7200;BME280;3641;49.082;8.200;2023-04-30T12:42:59;100598.94;;;16.47;46.89
7200;BME280;3641;49.082;8.200;2023-04-30T12:45:47;100607.00;;;16.48;47.96
7200;BME280;3641;49.082;8.200;2023-04-30T12:48:16;100609.75;;;16.48;52.76
7200;BME280;3641;49.082;8.200;2023-04-30T12:50:46;100604.72;;;16.39;48.37
7200;BME280;3641;49.082;8.200;2023-04-30T12:53:13;100599.63;;;16.36;51.82
7200;BME280;3641;49.082;8.200;2023-04-30T12:55:39;100604.28;;;16.35;51.26
7200;BME280;3641;49.082;8.200;2023-04-30T12:58:07;100605.16;;;16.36;50.51
7200;BME280;3641;49.082;8.200;2023-04-30T13:00:47;100597.94;;;16.34;50.12
7200;BME280;3641;49.082;8.200;2023-04-30T13:03:15;100598.53;;;16.43;50.91
7200;BME280;3641;49.082;8.200;2023-04-30T13:05:46;100594.34;;;16.34;48.30
7200;BME280;3641;49.082;8.200;2023-04-30T13:08:13;100590.47;;;16.42;52.41
7200;BME280;3641;49.082;8.200;2023-04-30T13:10:40;100580.31;;;16.42;48.81
7200;BME280;3641;49.082;8.200;2023-04-30T13:13:07;100591.53;;;16.47;48.62
7200;BME280;3641;49.082;8.200;2023-04-30T13:15:33;100590.25;;;16.43;50.84